Time;durP1;ratioP1;P1;durP2;ratioP2;P2;SDS_P1;SDS_P2;PMS_P1;PMS_P2;Temp;Humidity;BMP_temperature;BMP_pressure;BME280_temperature;BME280_humidity;BME280_pressure;Samples;Min_cycle;Max_cycle;Signal;HPM_P1;HPM_P2
2021/09/01 00:00:46;;;;;;;;;;;;;;;12.51;72.05;101754.63;4997820;28;20434;-67
2021/09/01 00:03:14;;;;;;;;;;;;;;;12.67;71.88;101749.19;4986999;28;20277;-67
2021/09/01 00:05:44;;;;;;;;;;;;;;;12.82;70.14;101747.38;4986153;28;19998;-68
2021/09/01 00:08:11;;;;;;;;;;;;;;;12.98;69.88;101745.50;4978501;28;20033;-67
2021/09/01 00:10:39;;;;;;;;;;;;;;;13.13;70.49;101746.38;4992476;28;19982;-67
2021/09/01 00:13:07;;;;;;;;;;;;;;;13.24;69.32;101736.69;4993389;28;19994;-67
2021/09/01 00:15:35;;;;;;;;;;;;;;;13.38;69.41;101737.63;4992010;28;19987;-67
2021/09/01 00:18:03;;;;;;;;;;;;;;;13.49;69.42;101740.53;4992672;28;19978;-67
2021/09/01 00:20:31;;;;;;;;;;;;;;;13.61;68.96;101740.59;4992614;28;20073;-68
2021/09/01 00:23:00;;;;;;;;;;;;;;;13.70;68.87;101728.34;4992854;28;20413;-68
2021/09/01 00:25:28;;;;;;;;;;;;;;;13.77;71.50;101726.09;4992641;28;19978;-67
2021/09/01 00:27:56;;;;;;;;;;;;;;;13.82;72.04;101719.44;4977661;28;20025;-68
2021/09/01 00:30:23;;;;;;;;;;;;;;;13.90;71.23;101718.94;4992224;28;20040;-68
2021/09/01 00:32:51;;;;;;;;;;;;;;;13.95;72.49;101733.88;4991307;28;19994;-67
2021/09/01 00:35:19;;;;;;;;;;;;;;;13.99;70.73;101735.38;4992299;28;20044;-67
2021/09/01 00:37:47;;;;;;;;;;;;;;;14.04;71.80;101723.41;4989463;28;19975;-67
2021/09/01 00:40:16;;;;;;;;;;;;;;;14.06;73.27;101732.28;4982232;28;19986;-67
2021/09/01 00:42:44;;;;;;;;;;;;;;;14.08;72.83;101733.03;4990032;28;19974;-67
2021/09/01 00:45:13;;;;;;;;;;;;;;;14.09;72.86;101742.91;4992237;28;19986;-67
2021/09/01 00:47:40;;;;;;;;;;;;;;;14.11;72.16;101739.13;4991557;28;20032;-67
2021/09/01 00:50:09;;;;;;;;;;;;;;;14.17;70.66;101733.31;4991850;28;19978;-68
2021/09/01 00:52:38;;;;;;;;;;;;;;;14.22;71.93;101723.06;4990131;28;20389;-67
2021/09/01 00:55:07;;;;;;;;;;;;;;;14.23;72.38;101732.91;4990809;28;20009;-67
2021/09/01 00:57:37;;;;;;;;;;;;;;;14.29;72.54;101727.06;5008625;28;20028;-68
2021/09/01 01:00:06;;;;;;;;;;;;;;;14.29;71.81;101731.63;4996237;28;19982;-67
2021/09/01 01:02:33;;;;;;;;;;;;;;;14.38;70.52;101735.53;4990322;28;19982;-67
2021/09/01 01:05:01;;;;;;;;;;;;;;;14.35;70.52;101733.91;4992034;28;19998;-67
2021/09/01 01:07:30;;;;;;;;;;;;;;;14.38;70.72;101736.38;4992006;28;19975;-67
2021/09/01 01:09:58;;;;;;;;;;;;;;;14.36;71.42;101743.72;4990722;28;20010;-67
2021/09/01 01:12:26;;;;;;;;;;;;;;;14.37;71.27;101752.69;4990875;28;19994;-67
2021/09/01 01:14:55;;;;;;;;;;;;;;;14.44;70.55;101743.28;4989750;28;20065;-67
2021/09/01 01:17:23;;;;;;;;;;;;;;;14.46;70.05;101739.50;5002965;28;20385;-67
2021/09/01 01:19:52;;;;;;;;;;;;;;;14.44;71.00;101749.53;4991332;28;20032;-67
2021/09/01 01:22:21;;;;;;;;;;;;;;;14.41;71.45;101752.41;4987186;28;19978;-67
2021/09/01 01:24:54;;;;;;;;;;;;;;;14.35;70.97;101744.69;4987513;28;20192;-67
2021/09/01 01:27:27;;;;;;;;;;;;;;;14.34;71.36;101742.97;4986422;28;19974;-68
2021/09/01 01:29:55;;;;;;;;;;;;;;;14.17;72.43;101754.06;4987059;28;19983;-67
2021/09/01 01:32:23;;;;;;;;;;;;;;;14.14;72.62;101754.28;4982049;28;20446;-67
2021/09/01 01:34:51;;;;;;;;;;;;;;;14.02;73.32;101753.22;4980438;28;20024;-67
2021/09/01 01:37:19;;;;;;;;;;;;;;;13.99;72.12;101757.00;4980281;28;20021;-67
2021/09/01 01:39:46;;;;;;;;;;;;;;;13.99;72.70;101764.22;4986172;28;20341;-67
2021/09/01 01:42:14;;;;;;;;;;;;;;;13.90;73.16;101765.72;4986230;28;20332;-67
2021/09/01 01:44:43;;;;;;;;;;;;;;;13.87;72.77;101760.50;4971976;28;20029;-67
2021/09/01 01:47:11;;;;;;;;;;;;;;;13.89;73.58;101773.91;4975565;28;19983;-67
2021/09/01 01:49:39;;;;;;;;;;;;;;;13.95;72.82;101777.06;4989844;28;20029;-67
2021/09/01 01:52:07;;;;;;;;;;;;;;;13.98;73.02;101771.47;4991253;28;19978;-68
2021/09/01 01:54:35;;;;;;;;;;;;;;;14.06;73.03;101770.97;4990717;28;20048;-67
2021/09/01 01:57:03;;;;;;;;;;;;;;;14.11;73.43;101766.16;4990953;28;19978;-67
2021/09/01 01:59:31;;;;;;;;;;;;;;;14.19;73.03;101776.44;5004478;28;19982;-68
2021/09/01 02:02:00;;;;;;;;;;;;;;;14.25;72.69;101776.88;4992018;28;19993;-67
2021/09/01 02:04:28;;;;;;;;;;;;;;;14.33;72.77;101773.66;5004821;28;20002;-67
2021/09/01 02:06:56;;;;;;;;;;;;;;;14.36;73.43;101786.97;4991190;28;19982;-68
2021/09/01 02:09:24;;;;;;;;;;;;;;;14.33;73.14;101787.19;4990672;28;20049;-67
2021/09/01 02:11:51;;;;;;;;;;;;;;;14.30;73.36;101785.56;4984788;28;20014;-67
2021/09/01 02:14:19;;;;;;;;;;;;;;;14.37;72.71;101787.84;4987086;28;20424;-67
2021/09/01 02:16:47;;;;;;;;;;;;;;;14.19;73.97;101781.84;4976868;28;19974;-67
2021/09/01 02:19:16;;;;;;;;;;;;;;;14.16;73.76;101782.03;4990843;28;20032;-67
2021/09/01 02:21:44;;;;;;;;;;;;;;;14.21;73.78;101793.41;4989581;28;20327;-67
2021/09/01 02:24:12;;;;;;;;;;;;;;;14.24;73.82;101788.66;4990757;28;20033;-68
2021/09/01 02:26:39;;;;;;;;;;;;;;;14.18;73.85;101780.97;4988478;28;20396;-67
2021/09/01 02:29:07;;;;;;;;;;;;;;;14.24;73.31;101771.59;4990288;28;19978;-67
2021/09/01 02:31:35;;;;;;;;;;;;;;;14.17;73.05;101775.69;4989658;28;19978;-68
2021/09/01 02:34:03;;;;;;;;;;;;;;;14.15;73.53;101767.69;4978408;28;20413;-68
2021/09/01 02:36:32;;;;;;;;;;;;;;;14.12;73.33;101761.59;4988550;28;20033;-67
2021/09/01 02:39:00;;;;;;;;;;;;;;;14.05;72.69;101760.25;5003762;28;19982;-67
2021/09/01 02:41:28;;;;;;;;;;;;;;;14.00;72.55;101760.56;4989722;28;20025;-67
2021/09/01 02:43:55;;;;;;;;;;;;;;;14.03;72.17;101759.50;4986072;28;19975;-67
2021/09/01 02:46:23;;;;;;;;;;;;;;;13.96;72.45;101765.31;4995525;28;20011;-68
2021/09/01 02:48:51;;;;;;;;;;;;;;;13.93;72.17;101768.22;4985752;28;20448;-67
2021/09/01 02:51:19;;;;;;;;;;;;;;;13.98;71.78;101767.91;4984928;28;20005;-67
2021/09/01 02:53:48;;;;;;;;;;;;;;;13.97;71.37;101769.75;4978473;28;19998;-67
2021/09/01 02:56:16;;;;;;;;;;;;;;;13.95;71.10;101782.47;4989838;28;20077;-67
2021/09/01 02:58:44;;;;;;;;;;;;;;;13.96;71.43;101789.63;5001515;28;19978;-68
2021/09/01 03:01:12;;;;;;;;;;;;;;;13.95;70.59;101776.22;4989651;28;20017;-67
2021/09/01 03:03:40;;;;;;;;;;;;;;;13.91;70.71;101769.28;4987141;28;20034;-67
2021/09/01 03:06:08;;;;;;;;;;;;;;;13.87;71.06;101757.81;4984178;28;20217;-67
2021/09/01 03:08:35;;;;;;;;;;;;;;;13.79;70.96;101765.56;4987177;28;19974;-67
2021/09/01 03:11:05;;;;;;;;;;;;;;;13.76;71.55;101764.84;4980507;28;19983;-67
2021/09/01 03:13:32;;;;;;;;;;;;;;;13.73;71.61;101760.53;4989840;28;20021;-67
2021/09/01 03:16:00;;;;;;;;;;;;;;;13.68;71.63;101765.34;4992276;28;20357;-67
2021/09/01 03:18:28;;;;;;;;;;;;;;;13.65;71.16;101752.06;4988043;28;20438;-67
2021/09/01 03:20:56;;;;;;;;;;;;;;;13.66;71.03;101761.91;4993445;28;20005;-68
2021/09/01 03:23:24;;;;;;;;;;;;;;;13.62;72.03;101768.47;4993110;28;20029;-67
2021/09/01 03:25:51;;;;;;;;;;;;;;;13.59;72.00;101772.22;4995009;28;20033;-67
2021/09/01 03:28:21;;;;;;;;;;;;;;;13.60;71.98;101765.00;4992714;28;19979;-67
2021/09/01 03:30:48;;;;;;;;;;;;;;;13.63;71.89;101767.50;4994001;28;20421;-67
2021/09/01 03:33:16;;;;;;;;;;;;;;;13.62;71.70;101768.47;4989180;28;20338;-67
2021/09/01 03:35:44;;;;;;;;;;;;;;;13.65;70.71;101769.13;4993764;28;19981;-67
2021/09/01 03:38:12;;;;;;;;;;;;;;;13.65;70.24;101769.13;4987995;28;19972;-67
2021/09/01 03:40:40;;;;;;;;;;;;;;;13.62;70.65;101771.16;4987542;28;20033;-68
2021/09/01 03:43:09;;;;;;;;;;;;;;;13.58;70.53;101773.19;4986571;28;19978;-68
2021/09/01 03:45:38;;;;;;;;;;;;;;;13.60;70.48;101773.97;4988905;28;19974;-68
2021/09/01 03:48:06;;;;;;;;;;;;;;;13.58;70.39;101777.72;4989194;28;19979;-67
2021/09/01 03:50:34;;;;;;;;;;;;;;;13.57;70.94;101773.28;4993707;28;20093;-67
2021/09/01 03:53:02;;;;;;;;;;;;;;;13.54;70.62;101781.59;4983952;28;19974;-68
2021/09/01 03:55:30;;;;;;;;;;;;;;;13.61;70.69;101782.91;5006732;28;19997;-67
2021/09/01 03:57:58;;;;;;;;;;;;;;;13.56;71.05;101779.66;5007930;28;20391;-68
2021/09/01 04:00:26;;;;;;;;;;;;;;;13.57;71.33;101786.78;4988471;28;19978;-67
2021/09/01 04:02:55;;;;;;;;;;;;;;;13.64;70.59;101790.81;4985387;28;20434;-67
2021/09/01 04:05:24;;;;;;;;;;;;;;;13.66;69.94;101783.50;5001738;28;20006;-67
2021/09/01 04:07:51;;;;;;;;;;;;;;;13.65;70.62;101779.94;4976734;28;19982;-67
2021/09/01 04:10:19;;;;;;;;;;;;;;;13.64;70.26;101780.03;4987776;28;19974;-68
2021/09/01 04:12:47;;;;;;;;;;;;;;;13.66;70.37;101786.19;4991300;28;19982;-67
2021/09/01 04:15:15;;;;;;;;;;;;;;;13.65;70.27;101800.66;4991200;28;20002;-67
2021/09/01 04:17:44;;;;;;;;;;;;;;;13.64;70.62;101798.91;4992725;28;20430;-67
2021/09/01 04:20:13;;;;;;;;;;;;;;;13.67;70.00;101804.13;4988921;28;19981;-67
2021/09/01 04:22:41;;;;;;;;;;;;;;;13.66;69.56;101797.84;4989739;28;19982;-67
2021/09/01 04:25:12;;;;;;;;;;;;;;;13.62;70.25;101808.94;4992494;28;20021;-67
2021/09/01 04:27:40;;;;;;;;;;;;;;;13.59;70.46;101801.06;4992029;28;20493;-67
2021/09/01 04:30:09;;;;;;;;;;;;;;;13.57;70.19;101797.59;4989489;28;20442;-67
2021/09/01 04:32:36;;;;;;;;;;;;;;;13.63;69.66;101791.78;4981064;28;20029;-67
2021/09/01 04:35:04;;;;;;;;;;;;;;;13.62;70.29;101796.31;4983519;28;20021;-67
2021/09/01 04:37:34;;;;;;;;;;;;;;;13.69;70.16;101794.09;4978113;28;19956;-67
2021/09/01 04:40:01;;;;;;;;;;;;;;;13.73;69.97;101803.72;5002078;28;19978;-67
2021/09/01 04:42:29;;;;;;;;;;;;;;;13.73;70.09;101803.72;4988301;28;20045;-67
2021/09/01 04:44:57;;;;;;;;;;;;;;;13.83;69.61;101791.38;4985539;28;20350;-66
2021/09/01 04:47:25;;;;;;;;;;;;;;;13.90;68.96;101795.41;4988529;28;20367;-68
2021/09/01 04:49:53;;;;;;;;;;;;;;;13.91;68.64;101791.75;4987086;28;20041;-69
2021/09/01 04:52:21;;;;;;;;;;;;;;;14.01;68.52;101799.25;4988507;28;20238;-68
2021/09/01 04:54:50;;;;;;;;;;;;;;;14.07;67.77;101790.72;4980196;28;19995;-68
2021/09/01 04:57:18;;;;;;;;;;;;;;;14.12;67.90;101797.59;5000563;28;20392;-68
2021/09/01 04:59:46;;;;;;;;;;;;;;;14.22;67.60;101789.75;4993100;28;20413;-67
2021/09/01 05:02:13;;;;;;;;;;;;;;;14.23;66.62;101791.47;4982270;28;19978;-67
2021/09/01 05:04:42;;;;;;;;;;;;;;;14.32;66.47;101796.25;4971332;28;20458;-68
2021/09/01 05:07:09;;;;;;;;;;;;;;;14.45;66.71;101799.94;4987831;28;20399;-67
2021/09/01 05:09:37;;;;;;;;;;;;;;;14.50;64.78;101794.22;4989548;28;20033;-67
2021/09/01 05:12:07;;;;;;;;;;;;;;;14.59;65.27;101797.16;4985436;28;20030;-67
2021/09/01 05:14:35;;;;;;;;;;;;;;;14.68;65.14;101802.88;4980754;28;20048;-67
2021/09/01 05:17:02;;;;;;;;;;;;;;;14.75;65.05;101802.41;4985480;28;19962;-66
2021/09/01 05:19:30;;;;;;;;;;;;;;;14.79;64.93;101797.63;4989754;28;20056;-67
2021/09/01 05:22:14;;;;;;;;;;;;;;;14.90;63.15;101787.81;4987903;28;19982;-67
2021/09/01 05:24:45;;;;;;;;;;;;;;;14.99;61.95;101789.00;4972658;28;19983;-67
2021/09/01 05:27:18;;;;;;;;;;;;;;;15.02;62.07;101785.25;4982743;28;20004;-67
2021/09/01 05:29:47;;;;;;;;;;;;;;;15.19;61.85;101793.03;4996432;28;19974;-67
2021/09/01 05:32:19;;;;;;;;;;;;;;;15.26;61.49;101794.31;4990021;28;20025;-67
2021/09/01 05:34:48;;;;;;;;;;;;;;;15.35;60.61;101788.28;4989545;28;19990;-67
2021/09/01 05:37:16;;;;;;;;;;;;;;;15.59;60.11;101782.94;4982845;28;19979;-67
2021/09/01 05:39:45;;;;;;;;;;;;;;;15.70;59.20;101787.63;4982808;28;19978;-67
2021/09/01 05:42:15;;;;;;;;;;;;;;;15.73;60.38;101788.25;4989904;28;20465;-68
2021/09/01 05:44:43;;;;;;;;;;;;;;;15.91;60.51;101790.59;4990581;28;20028;-67
2021/09/01 05:47:11;;;;;;;;;;;;;;;16.12;57.52;101789.88;4979684;28;20393;-68
2021/09/01 05:49:40;;;;;;;;;;;;;;;16.31;58.49;101786.66;4988275;28;20412;-67
2021/09/01 05:52:08;;;;;;;;;;;;;;;16.33;56.76;101790.13;4990792;28;20032;-68
2021/09/01 05:54:36;;;;;;;;;;;;;;;16.60;59.07;101787.16;4990268;28;19978;-67
2021/09/01 05:57:08;;;;;;;;;;;;;;;16.72;57.94;101791.69;4990923;28;19986;-67
2021/09/01 05:59:40;;;;;;;;;;;;;;;16.93;55.66;101785.59;4988587;28;19978;-67
2021/09/01 06:02:09;;;;;;;;;;;;;;;17.10;56.64;101778.81;5002895;28;20470;-67
2021/09/01 06:04:39;;;;;;;;;;;;;;;17.23;53.65;101794.03;4985395;28;20051;-68
2021/09/01 06:07:12;;;;;;;;;;;;;;;17.15;55.77;101790.22;4990915;28;20009;-68
2021/09/01 06:09:42;;;;;;;;;;;;;;;17.21;56.00;101796.00;4975984;28;19978;-68
2021/09/01 06:12:12;;;;;;;;;;;;;;;17.35;56.39;101792.19;4989161;28;19986;-68
2021/09/01 06:14:42;;;;;;;;;;;;;;;17.47;54.80;101799.38;4989916;28;19979;-68
2021/09/01 06:17:10;;;;;;;;;;;;;;;17.63;52.96;101797.16;5003837;28;19994;-68
2021/09/01 06:19:38;;;;;;;;;;;;;;;17.62;52.93;101789.13;4990128;28;20068;-68
2021/09/01 06:22:06;;;;;;;;;;;;;;;17.89;54.81;101797.78;4989782;28;20345;-67
2021/09/01 06:24:34;;;;;;;;;;;;;;;18.02;55.28;101797.63;4989835;28;19982;-67
2021/09/01 06:27:03;;;;;;;;;;;;;;;18.15;52.10;101795.66;4987334;28;19978;-68
2021/09/01 06:29:30;;;;;;;;;;;;;;;18.24;52.05;101796.72;4980727;28;19979;-68
2021/09/01 06:32:00;;;;;;;;;;;;;;;18.37;52.20;101796.56;4989243;28;19979;-68
2021/09/01 06:34:27;;;;;;;;;;;;;;;18.37;52.59;101807.44;4999494;28;20044;-67
2021/09/01 06:36:55;;;;;;;;;;;;;;;18.35;51.32;101801.25;4991453;28;20049;-67
2021/09/01 06:39:23;;;;;;;;;;;;;;;18.47;49.15;101795.69;4970654;28;19975;-67
2021/09/01 06:41:51;;;;;;;;;;;;;;;18.72;52.79;101794.50;4984955;28;19994;-68
2021/09/01 06:44:19;;;;;;;;;;;;;;;18.55;51.10;101795.03;4982383;28;20388;-67
2021/09/01 06:46:46;;;;;;;;;;;;;;;18.64;51.29;101799.72;4997090;28;20468;-67
2021/09/01 06:49:16;;;;;;;;;;;;;;;18.65;50.46;101797.84;4989331;28;20021;-67
2021/09/01 06:51:43;;;;;;;;;;;;;;;18.69;49.54;101802.94;4989711;28;19974;-67
2021/09/01 06:54:11;;;;;;;;;;;;;;;18.60;48.73;101795.50;4989904;28;19982;-68
2021/09/01 06:56:39;;;;;;;;;;;;;;;18.41;49.26;101792.63;4988880;28;21150;-67
2021/09/01 06:59:07;;;;;;;;;;;;;;;18.54;50.28;101787.84;5000414;28;19978;-68
2021/09/01 07:01:34;;;;;;;;;;;;;;;18.55;50.42;101789.59;4990184;28;20433;-68
2021/09/01 07:04:03;;;;;;;;;;;;;;;18.74;51.02;101789.78;4990135;28;20093;-67
2021/09/01 07:06:32;;;;;;;;;;;;;;;18.91;50.35;101786.47;4989193;28;20073;-68
2021/09/01 07:09:00;;;;;;;;;;;;;;;18.79;48.02;101792.97;4981530;28;20484;-67
2021/09/01 07:11:27;;;;;;;;;;;;;;;18.87;49.04;101773.25;4989541;28;19974;-68
2021/09/01 07:13:55;;;;;;;;;;;;;;;18.90;47.74;101787.47;4989185;28;20305;-66
2021/09/01 07:16:24;;;;;;;;;;;;;;;19.20;47.66;101780.34;4989082;28;20582;-67
2021/09/01 07:18:52;;;;;;;;;;;;;;;19.17;47.29;101791.50;4983928;28;19981;-68
2021/09/01 07:21:20;;;;;;;;;;;;;;;19.25;46.53;101788.97;4989199;28;20441;-67
2021/09/01 07:23:49;;;;;;;;;;;;;;;19.35;46.14;101789.91;4988835;28;20441;-68
2021/09/01 07:26:17;;;;;;;;;;;;;;;19.38;46.07;101781.47;4980244;28;19978;-67
2021/09/01 07:28:45;;;;;;;;;;;;;;;19.63;48.74;101777.47;4989742;28;19981;-67
2021/09/01 07:31:12;;;;;;;;;;;;;;;19.36;47.88;101786.19;4989843;28;20052;-68
2021/09/01 07:33:40;;;;;;;;;;;;;;;19.35;47.75;101789.91;4989119;28;20634;-67
2021/09/01 07:36:08;;;;;;;;;;;;;;;19.12;45.25;101793.78;4980834;28;20417;-68
2021/09/01 07:38:36;;;;;;;;;;;;;;;19.13;46.64;101792.78;4988899;28;20504;-68
2021/09/01 07:41:06;;;;;;;;;;;;;;;18.96;46.97;101801.53;4989098;28;19974;-67
2021/09/01 07:43:34;;;;;;;;;;;;;;;19.08;47.40;101803.22;4988978;28;20010;-68
2021/09/01 07:46:01;;;;;;;;;;;;;;;19.40;47.77;101801.25;4985469;28;19979;-68
2021/09/01 07:48:30;;;;;;;;;;;;;;;19.30;47.16;101794.91;4983974;28;20028;-68
2021/09/01 07:50:57;;;;;;;;;;;;;;;19.22;46.05;101803.72;4989070;28;20005;-68
2021/09/01 07:53:25;;;;;;;;;;;;;;;19.13;44.49;101796.38;4988281;28;19974;-67
2021/09/01 07:55:53;;;;;;;;;;;;;;;19.15;45.61;101799.81;4989202;28;20029;-67
2021/09/01 07:58:22;;;;;;;;;;;;;;;19.36;45.10;101797.09;4984104;28;19982;-67
2021/09/01 08:00:50;;;;;;;;;;;;;;;19.33;46.85;101801.94;4988876;28;19978;-67
2021/09/01 08:03:18;;;;;;;;;;;;;;;19.37;44.41;101797.94;4983762;28;20057;-67
2021/09/01 08:05:46;;;;;;;;;;;;;;;19.26;45.31;101800.72;4984643;28;19974;-67
2021/09/01 08:08:14;;;;;;;;;;;;;;;19.33;47.31;101801.94;4986524;28;19982;-67
2021/09/01 08:10:42;;;;;;;;;;;;;;;19.40;44.44;101814.03;4984719;28;19981;-67
2021/09/01 08:13:09;;;;;;;;;;;;;;;19.59;46.70;101803.25;4987674;28;19974;-67
2021/09/01 08:15:39;;;;;;;;;;;;;;;19.42;44.37;101807.44;4987070;28;19974;-67
2021/09/01 08:18:06;;;;;;;;;;;;;;;19.46;45.09;101808.03;4987126;28;20424;-67
2021/09/01 08:20:34;;;;;;;;;;;;;;;19.22;45.27;101811.03;4992386;28;20491;-67
2021/09/01 08:23:02;;;;;;;;;;;;;;;19.30;45.90;101813.13;4983667;28;19995;-67
2021/09/01 08:25:30;;;;;;;;;;;;;;;19.39;46.01;101809.56;4989506;28;19974;-67
2021/09/01 08:27:58;;;;;;;;;;;;;;;19.65;46.45;101812.75;4981287;28;19982;-67
2021/09/01 08:30:25;;;;;;;;;;;;;;;19.33;44.61;101810.97;4990463;28;20036;-67
2021/09/01 08:32:55;;;;;;;;;;;;;;;19.40;45.74;101806.72;4983144;28;20434;-67
2021/09/01 08:35:22;;;;;;;;;;;;;;;19.59;45.83;101813.28;5006809;28;20029;-67
2021/09/01 08:37:50;;;;;;;;;;;;;;;19.64;46.35;101813.75;4992251;28;20415;-67
2021/09/01 08:40:19;;;;;;;;;;;;;;;19.63;44.55;101818.34;4980226;28;20041;-67
2021/09/01 08:42:47;;;;;;;;;;;;;;;19.10;44.33;101814.84;4989138;28;19971;-67
2021/09/01 08:45:15;;;;;;;;;;;;;;;19.32;44.98;101822.03;4991878;28;20330;-67
2021/09/01 08:47:43;;;;;;;;;;;;;;;19.38;45.40;101819.63;4991676;28;19979;-67
2021/09/01 08:50:13;;;;;;;;;;;;;;;19.22;44.62;101817.34;4995868;28;20006;-67
2021/09/01 08:52:41;;;;;;;;;;;;;;;19.36;46.01;101818.03;4991731;28;20009;-67
2021/09/01 08:55:10;;;;;;;;;;;;;;;19.29;44.17;101825.00;5006504;28;19982;-68
2021/09/01 08:57:38;;;;;;;;;;;;;;;19.38;44.96;101821.47;5006651;28;20045;-67
2021/09/01 09:00:07;;;;;;;;;;;;;;;19.45;44.16;101833.56;4992277;28;20021;-67
2021/09/01 09:02:35;;;;;;;;;;;;;;;19.30;43.55;101824.88;5006623;28;19986;-67
2021/09/01 09:05:05;;;;;;;;;;;;;;;19.23;45.08;101827.25;4991916;28;19998;-67
2021/09/01 09:07:42;;;;;;;;;;;;;;;19.39;44.36;101828.66;4992112;28;20131;-67
2021/09/01 09:10:25;;;;;;;;;;;;;;;19.37;44.50;101822.47;4991779;28;19982;-67
2021/09/01 09:12:56;;;;;;;;;;;;;;;19.56;46.34;101821.72;4989840;28;20073;-67
2021/09/01 09:15:24;;;;;;;;;;;;;;;19.81;46.93;101799.47;4991712;28;20005;-67
2021/09/01 09:17:59;;;;;;;;;;;;;;;19.81;45.61;101807.66;4992693;28;20088;-67
2021/09/01 09:20:28;;;;;;;;;;;;;;;19.85;43.16;101798.19;5003104;28;19990;-67
2021/09/01 09:22:57;;;;;;;;;;;;;;;19.67;43.32;101759.84;4991127;28;19978;-67
2021/09/01 09:25:27;;;;;;;;;;;;;;;19.98;44.92;101782.47;4985058;28;19975;-67
2021/09/01 09:27:57;;;;;;;;;;;;;;;20.02;44.10;101789.34;4985477;28;20009;-67
2021/09/01 09:30:25;;;;;;;;;;;;;;;20.27;45.74;101785.25;4991711;28;19978;-67
2021/09/01 09:32:55;;;;;;;;;;;;;;;20.49;45.24;101789.59;4991041;28;20614;-67
2021/09/01 09:35:23;;;;;;;;;;;;;;;20.62;45.14;101783.88;4991218;28;19974;-67
2021/09/01 09:38:04;;;;;;;;;;;;;;;20.39;42.69;101797.75;4991141;28;19994;-67
2021/09/01 09:40:33;;;;;;;;;;;;;;;20.55;42.71;101790.91;4990859;28;20021;-67
2021/09/01 09:43:14;;;;;;;;;;;;;;;20.68;44.81;101791.47;4979702;28;20165;-67
2021/09/01 09:45:42;;;;;;;;;;;;;;;20.81;42.79;101785.72;4977174;28;20464;-68
2021/09/01 09:48:10;;;;;;;;;;;;;;;21.09;44.73;101784.81;4979451;28;20393;-67
2021/09/01 09:50:38;;;;;;;;;;;;;;;21.25;42.57;101784.25;4989112;28;19974;-67
2021/09/01 09:53:11;;;;;;;;;;;;;;;21.27;40.25;101783.09;5002658;28;19977;-67
2021/09/01 09:55:39;;;;;;;;;;;;;;;21.29;43.97;101781.06;5001438;28;20442;-67
2021/09/01 09:58:08;;;;;;;;;;;;;;;21.25;41.37;101781.53;4995200;28;20341;-67
2021/09/01 10:00:36;;;;;;;;;;;;;;;21.06;42.76;101783.25;5013738;28;20058;-67
2021/09/01 10:03:04;;;;;;;;;;;;;;;21.11;42.80;101782.81;4990711;28;19974;-67
2021/09/01 10:05:32;;;;;;;;;;;;;;;21.11;43.02;101777.34;4979549;28;19999;-67
2021/09/01 10:08:01;;;;;;;;;;;;;;;21.23;41.34;101773.47;5002228;28;20029;-68
2021/09/01 10:10:30;;;;;;;;;;;;;;;21.13;41.82;101775.34;5004462;28;20025;-67
2021/09/01 10:12:58;;;;;;;;;;;;;;;20.99;41.46;101770.31;4987607;28;20032;-68
2021/09/01 10:15:28;;;;;;;;;;;;;;;21.12;42.33;101780.94;4973120;28;19975;-67
2021/09/01 10:17:57;;;;;;;;;;;;;;;21.04;42.58;101770.75;4973806;28;20073;-67
2021/09/01 10:20:26;;;;;;;;;;;;;;;21.12;42.40;101770.00;5002755;28;19955;-67
2021/09/01 10:23:00;;;;;;;;;;;;;;;21.26;42.13;101770.44;4988674;28;20009;-67
2021/09/01 10:25:34;;;;;;;;;;;;;;;21.14;41.65;101765.28;4988780;28;20460;-68
2021/09/01 10:28:20;;;;;;;;;;;;;;;21.35;43.00;101766.81;4988260;28;19978;-67
2021/09/01 10:31:02;;;;;;;;;;;;;;;21.29;41.08;101767.41;4979430;28;20033;-68
2021/09/01 10:33:37;;;;;;;;;;;;;;;21.31;43.22;101768.13;4989463;28;19974;-67
2021/09/01 10:36:36;;;;;;;;;;;;;;;21.30;42.40;101771.88;4989154;28;20027;-67
2021/09/01 10:39:14;;;;;;;;;;;;;;;21.40;42.39;101769.09;4984106;28;20041;-67
2021/09/01 10:41:44;;;;;;;;;;;;;;;21.49;43.54;101772.81;4984010;28;19978;-67
2021/09/01 10:44:19;;;;;;;;;;;;;;;21.35;43.68;101774.16;5001822;28;19975;-67
2021/09/01 10:46:59;;;;;;;;;;;;;;;21.15;42.32;101767.88;4983087;28;19978;-67
2021/09/01 10:49:28;;;;;;;;;;;;;;;21.29;41.39;101770.16;4990723;28;20087;-68
2021/09/01 10:51:57;;;;;;;;;;;;;;;21.43;43.27;101773.41;4977474;28;20523;-67
2021/09/01 10:54:29;;;;;;;;;;;;;;;21.36;41.16;101767.66;4984269;28;19975;-67
2021/09/01 10:56:59;;;;;;;;;;;;;;;21.34;42.64;101766.97;4988933;28;20070;-67
2021/09/01 10:59:27;;;;;;;;;;;;;;;21.25;43.21;101760.53;4995425;28;19997;-67
2021/09/01 11:02:08;;;;;;;;;;;;;;;21.43;43.87;101755.16;4976497;28;20030;-67
2021/09/01 11:04:36;;;;;;;;;;;;;;;21.32;41.51;101755.31;4983425;28;20504;-67
2021/09/01 11:07:04;;;;;;;;;;;;;;;21.31;44.16;101762.66;4983853;28;19954;-67
2021/09/01 11:09:32;;;;;;;;;;;;;;;21.27;41.92;101761.22;4986257;28;19985;-68
2021/09/01 11:12:02;;;;;;;;;;;;;;;21.22;42.24;101758.06;4989745;28;19982;-67
2021/09/01 11:14:32;;;;;;;;;;;;;;;21.23;44.25;101758.91;4989718;28;20385;-67
2021/09/01 11:17:00;;;;;;;;;;;;;;;21.19;43.81;101754.75;4989178;28;19979;-67
2021/09/01 11:19:29;;;;;;;;;;;;;;;21.18;43.05;101761.25;4988626;28;20037;-67
2021/09/01 11:21:59;;;;;;;;;;;;;;;21.12;43.01;101761.81;4984711;28;20393;-68
2021/09/01 11:24:27;;;;;;;;;;;;;;;20.99;44.42;101753.94;4990138;28;19974;-67
2021/09/01 11:26:56;;;;;;;;;;;;;;;21.02;44.83;101750.91;4988891;28;20512;-68
2021/09/01 11:29:34;;;;;;;;;;;;;;;21.12;44.38;101745.41;4989330;28;20397;-67
2021/09/01 11:32:03;;;;;;;;;;;;;;;21.02;42.62;101750.91;4989306;28;20006;-67
2021/09/01 11:34:31;;;;;;;;;;;;;;;21.33;42.64;101749.69;4989651;28;20029;-67
2021/09/01 11:36:59;;;;;;;;;;;;;;;21.50;42.42;101741.75;4991386;28;19985;-67
2021/09/01 11:39:31;;;;;;;;;;;;;;;21.65;43.05;101741.06;4993429;28;19990;-68
2021/09/01 11:41:59;;;;;;;;;;;;;;;21.97;42.79;101740.59;4992838;28;20449;-67
2021/09/01 11:44:28;;;;;;;;;;;;;;;22.25;46.43;101751.53;5011570;28;19975;-67
2021/09/01 11:46:57;;;;;;;;;;;;;;;22.12;42.01;101734.66;5007763;28;20497;-67
2021/09/01 11:49:24;;;;;;;;;;;;;;;21.65;41.01;101732.88;4993726;28;19978;-67
2021/09/01 11:51:52;;;;;;;;;;;;;;;21.65;41.68;101732.88;4992893;28;19986;-68
2021/09/01 11:54:20;;;;;;;;;;;;;;;21.81;42.80;101739.56;4993173;28;20069;-67
2021/09/01 11:56:51;;;;;;;;;;;;;;;21.82;42.14;101741.28;4992249;28;20060;-67
2021/09/01 11:59:20;;;;;;;;;;;;;;;21.77;43.91;101741.75;4993025;28;20001;-68
2021/09/01 12:01:50;;;;;;;;;;;;;;;22.00;42.29;101732.09;5007148;28;19975;-67
2021/09/01 12:04:20;;;;;;;;;;;;;;;22.16;46.17;101736.94;5003123;28;19997;-67
2021/09/01 12:07:08;;;;;;;;;;;;;;;22.23;43.04;101750.84;4991896;28;20511;-67
2021/09/01 12:09:36;;;;;;;;;;;;;;;22.17;43.63;101743.25;4980093;28;20033;-67
2021/09/01 12:12:06;;;;;;;;;;;;;;;21.92;44.64;101737.47;4993193;28;19978;-67
2021/09/01 12:14:34;;;;;;;;;;;;;;;21.74;43.33;101744.81;4988955;28;19975;-67
2021/09/01 12:17:15;;;;;;;;;;;;;;;21.86;44.28;101745.44;4983520;28;19985;-67
2021/09/01 12:19:48;;;;;;;;;;;;;;;21.85;43.04;101746.47;4991995;28;20032;-67
2021/09/01 12:22:30;;;;;;;;;;;;;;;21.88;43.47;101755.22;4992957;28;20413;-67
2021/09/01 12:25:05;;;;;;;;;;;;;;;21.80;43.18;101751.53;4978194;28;20134;-67
2021/09/01 12:27:33;;;;;;;;;;;;;;;21.61;44.70;101745.13;4992668;28;19985;-67
2021/09/01 12:30:01;;;;;;;;;;;;;;;21.50;44.79;101749.94;4991354;28;19978;-67
2021/09/01 12:32:29;;;;;;;;;;;;;;;21.58;44.84;101741.84;4992235;28;19978;-67
2021/09/01 12:35:00;;;;;;;;;;;;;;;21.57;45.66;101734.66;4990311;28;20006;-67
2021/09/01 12:37:29;;;;;;;;;;;;;;;21.55;44.05;101731.22;4992391;28;19978;-67
2021/09/01 12:39:58;;;;;;;;;;;;;;;21.01;44.38;101669.97;4993095;28;20009;-67
2021/09/01 12:42:28;;;;;;;;;;;;;;;21.35;44.35;101725.81;4992320;28;20421;-67
2021/09/01 12:44:56;;;;;;;;;;;;;;;21.34;43.49;101725.97;4991704;28;19984;-67